Time;durP1;ratioP1;P1;durP2;ratioP2;P2;SDS_P1;SDS_P2;PMS_P1;PMS_P2;Temp;Humidity;BMP_temperature;BMP_pressure;BME280_temperature;BME280_humidity;BME280_pressure;Samples;Min_cycle;Max_cycle;Signal;HPM_P1;HPM_P2
2022/02/03 00:04:20;;;;;;;11.23;5.82;;;102.40;2227.20;;;;;;5066746;28;20071;-73
2022/02/03 00:06:54;;;;;;;17.88;5.75;;;102.40;2227.20;;;;;;5066195;28;20021;-73
2022/02/03 00:25:33;;;;;;;18.58;5.78;;;77.70;2227.20;;;;;;5060092;28;20502;-74
2022/02/03 00:28:27;;;;;;;16.33;5.40;;;77.70;2227.20;;;;;;5069794;28;20029;-74
2022/02/03 00:33:35;;;;;;;13.75;6.05;;;77.70;2227.20;;;;;;5060316;28;20024;-73
2022/02/03 00:49:16;;;;;;;12.00;4.65;;;77.70;2227.20;;;;;;5063070;28;20027;-73
2022/02/03 00:51:47;;;;;;;9.93;5.45;;;77.70;2227.20;;;;;;5083181;28;20025;-73
2022/02/03 00:54:14;;;;;;;10.43;4.45;;;77.70;2227.20;;;;;;5065932;28;20063;-73
2022/02/03 00:57:03;;;;;;;8.57;4.65;;;77.70;2227.20;;;;;;5055718;28;20025;-74
2022/02/03 00:59:33;;;;;;;14.35;4.82;;;77.70;2227.20;;;;;;5071717;28;20111;-74
2022/02/03 01:02:03;;;;;;;13.68;5.30;;;77.60;2227.20;;;;;;5066389;28;20029;-73
2022/02/03 01:04:30;;;;;;;8.80;5.63;;;77.60;2227.20;;;;;;5075224;28;20467;-73
2022/02/03 01:06:58;;;;;;;14.45;5.32;;;77.70;2227.20;;;;;;5075966;28;20098;-74
2022/02/03 01:09:36;;;;;;;7.05;4.47;;;77.60;2227.20;;;;;;5074455;28;20024;-73
2022/02/03 01:12:17;;;;;;;10.65;4.75;;;77.70;2227.20;;;;;;5075753;28;20025;-73
2022/02/03 01:14:51;;;;;;;9.77;5.05;;;77.70;2227.20;;;;;;5074716;28;20028;-73
2022/02/03 01:17:38;;;;;;;8.20;3.85;;;77.70;2227.20;;;;;;5075587;28;20036;-74
2022/02/03 01:45:00;;;;;;;12.18;5.82;;;77.50;2227.20;;;;;;5075559;28;20054;-72
2022/02/03 01:52:42;;;;;;;16.13;6.13;;;77.40;2227.20;;;;;;5075499;28;20548;-72
2022/02/03 01:55:10;;;;;;;16.40;5.72;;;77.40;2227.20;;;;;;5074986;28;20035;-72
2022/02/03 01:57:58;;;;;;;12.60;5.60;;;77.40;2227.20;;;;;;5075162;28;20387;-72
2022/02/03 02:00:25;;;;;;;13.70;6.60;;;77.30;2227.20;;;;;;5075117;28;20024;-71
2022/02/03 02:03:09;;;;;;;15.77;6.32;;;77.30;2227.20;;;;;;5073665;28;20040;-71
2022/02/03 02:06:06;;;;;;;16.52;6.47;;;77.30;2227.20;;;;;;5073462;28;20021;-73
2022/02/03 02:09:09;;;;;;;9.20;4.85;;;77.20;2227.20;;;;;;5075105;28;20357;-72
2022/02/03 02:11:54;;;;;;;14.95;6.20;;;77.20;2227.20;;;;;;5012558;28;20033;-72
2022/02/03 02:41:19;;;;;;;12.30;5.33;;;77.10;2227.20;;;;;;4972866;28;20033;-73
2022/02/03 02:42:58;;;;;;;11.77;4.90;;;77.00;2227.20;;;;;;4963465;28;20489;-73
2022/02/03 02:45:44;;;;;;;9.98;5.07;;;77.00;2227.20;;;;;;4972900;28;20034;-73
2022/02/03 02:48:47;;;;;;;13.32;4.82;;;77.00;2227.20;;;;;;4991002;28;20035;-73
2022/02/03 02:51:20;;;;;;;8.93;4.15;;;76.90;2227.20;;;;;;4992733;28;20030;-73
2022/02/03 02:56:47;;;;;;;8.68;4.50;;;77.00;2227.20;;;;;;4992646;28;20081;-73
2022/02/03 03:33:16;;;;;;;12.43;5.45;;;77.00;2227.20;;;;;;5072750;28;20020;-74
2022/02/03 03:35:53;;;;;;;21.67;6.70;;;77.00;2227.20;;;;;;5088239;28;20032;-73
2022/02/03 03:38:32;;;;;;;17.58;6.07;;;77.00;2227.20;;;;;;5071707;28;20024;-73
2022/02/03 03:41:00;;;;;;;13.82;7.45;;;77.00;2227.20;;;;;;5073156;28;20023;-73
2022/02/03 03:43:40;;;;;;;13.73;7.55;;;77.00;2227.20;;;;;;5072895;28;20031;-73
2022/02/03 03:46:20;;;;;;;14.98;7.35;;;77.00;2227.20;;;;;;5072905;28;20087;-72
2022/02/03 03:49:09;;;;;;;11.07;6.75;;;77.00;2227.20;;;;;;5071822;28;20031;-72
2022/02/03 03:52:00;;;;;;;14.00;6.38;;;77.00;2227.20;;;;;;5072885;28;20129;-72
2022/02/03 04:39:57;;;;;;;18.40;7.47;;;52.10;2227.20;;;;;;5017132;28;20045;-73
2022/02/03 04:55:33;;;;;;;13.38;5.68;;;52.00;2227.20;;;;;;5009716;28;20421;-74
2022/02/03 04:59:04;;;;;;;13.52;6.97;;;52.00;2227.20;;;;;;4993713;28;20128;-74
2022/02/03 05:04:39;;;;;;;12.15;6.45;;;76.80;2227.20;;;;;;5010134;28;20034;-74
2022/02/03 05:10:16;;;;;;;13.60;7.03;;;77.00;2227.20;;;;;;5010058;28;20022;-73
2022/02/03 05:21:54;;;;;;;9.35;5.00;;;77.20;2227.20;;;;;;4990378;28;20018;-73
2022/02/03 05:44:06;;;;;;;20.33;5.97;;;77.50;2227.20;;;;;;5023585;28;20467;-74
2022/02/03 05:49:43;;;;;;;14.18;6.85;;;77.50;2227.20;;;;;;5053428;28;19955;-74
2022/02/03 05:52:28;;;;;;;10.68;5.65;;;77.50;2227.20;;;;;;5030644;28;20086;-73
2022/02/03 06:05:33;;;;;;;10.55;7.45;;;77.50;2227.20;;;;;;5074780;28;20108;-74
2022/02/03 06:21:51;;;;;;;18.75;9.40;;;77.50;2227.20;;;;;;5052740;28;20051;-74
2022/02/03 06:24:48;;;;;;;14.13;7.53;;;77.50;2227.20;;;;;;5052077;28;20044;-74
2022/02/03 06:29:55;;;;;;;17.10;8.02;;;77.40;2227.20;;;;;;5052363;28;20029;-73
2022/02/03 06:32:21;;;;;;;18.25;7.95;;;77.40;2227.20;;;;;;5049020;28;20095;-73
2022/02/03 06:34:46;;;;;;;22.95;11.75;;;77.40;2227.20;;;;;;5035062;28;20479;-74
2022/02/03 06:37:12;;;;;;;60.47;24.02;;;77.50;2227.20;;;;;;5035740;28;20072;-73
2022/02/03 06:39:38;;;;;;;59.80;27.60;;;77.40;2227.20;;;;;;5045303;28;20040;-73
2022/02/03 06:42:06;;;;;;;38.75;19.48;;;77.50;2227.20;;;;;;5032304;28;20040;-73
2022/02/03 06:44:40;;;;;;;21.92;11.18;;;77.40;2227.20;;;;;;5032183;28;20109;-73
2022/02/03 06:47:18;;;;;;;15.65;8.82;;;77.40;2227.20;;;;;;5024974;28;20039;-73
2022/02/03 06:52:28;;;;;;;17.20;7.80;;;77.40;2227.20;;;;;;5042006;28;20056;-73
2022/02/03 06:55:11;;;;;;;17.15;7.50;;;77.40;2227.20;;;;;;5073090;28;20036;-73
2022/02/03 06:57:43;;;;;;;12.35;6.88;;;77.50;2227.20;;;;;;5053550;28;20369;-73
2022/02/03 07:00:18;;;;;;;22.52;7.80;;;77.60;2227.20;;;;;;5069190;28;20021;-73
2022/02/03 07:02:48;;;;;;;14.52;7.85;;;77.60;2227.20;;;;;;5070655;28;20032;-73
2022/02/03 07:05:14;;;;;;;13.52;7.28;;;77.60;2227.20;;;;;;5072511;28;20070;-73
2022/02/03 07:07:41;;;;;;;17.42;8.02;;;77.60;2227.20;;;;;;5073599;28;20044;-73
2022/02/03 07:10:08;;;;;;;20.85;7.30;;;77.70;2227.20;;;;;;5073337;28;20532;-73
2022/02/03 07:12:35;;;;;;;12.98;7.50;;;77.70;2227.20;;;;;;5073657;28;20471;-73
2022/02/03 07:15:03;;;;;;;12.68;8.00;;;102.40;2227.20;;;;;;5073191;28;20016;-73
2022/02/03 07:17:29;;;;;;;14.30;6.85;;;77.70;2227.20;;;;;;5068235;28;20083;-73
2022/02/03 07:20:00;;;;;;;16.27;7.05;;;77.70;2227.20;;;;;;5069025;28;20037;-73
2022/02/03 07:22:26;;;;;;;12.07;7.32;;;77.60;2227.20;;;;;;5061647;28;20108;-73
2022/02/03 07:24:52;;;;;;;19.00;7.03;;;77.60;2227.20;;;;;;5073445;28;20081;-73
2022/02/03 07:27:20;;;;;;;11.40;6.53;;;77.60;2227.20;;;;;;5073285;28;20036;-73
2022/02/03 07:29:45;;;;;;;12.63;5.90;;;77.50;2227.20;;;;;;5073512;28;20463;-73
2022/02/03 07:32:11;;;;;;;12.75;7.32;;;77.50;2227.20;;;;;;5073230;28;20146;-73
2022/02/03 07:34:38;;;;;;;13.07;6.00;;;77.60;2227.20;;;;;;5073393;28;20028;-73
2022/02/03 07:37:04;;;;;;;12.43;6.13;;;77.60;2227.20;;;;;;5073137;28;20433;-73
2022/02/03 07:39:30;;;;;;;16.45;7.60;;;77.60;2227.20;;;;;;5072895;28;20107;-74
2022/02/03 07:41:56;;;;;;;15.35;8.82;;;77.60;2227.20;;;;;;5054881;28;20025;-73
2022/02/03 07:44:21;;;;;;;17.70;9.77;;;77.70;2227.20;;;;;;5060162;28;20042;-74
2022/02/03 07:46:47;;;;;;;18.55;10.25;;;77.60;2227.20;;;;;;5052322;28;20025;-73
2022/02/03 07:49:13;;;;;;;19.30;10.48;;;77.60;2227.20;;;;;;5053050;28;20020;-74
2022/02/03 07:51:39;;;;;;;16.35;8.80;;;77.60;2227.20;;;;;;5071191;28;20032;-73
2022/02/03 07:54:05;;;;;;;18.55;9.07;;;77.60;2227.20;;;;;;5072688;28;20029;-73
2022/02/03 07:56:32;;;;;;;18.50;10.57;;;77.60;2227.20;;;;;;5072828;28;20028;-72
2022/02/03 07:58:57;;;;;;;20.88;9.15;;;77.70;2227.20;;;;;;5072758;28;20052;-73
2022/02/03 08:01:23;;;;;;;14.02;9.38;;;77.70;2227.20;;;;;;5071608;28;20468;-72
2022/02/03 08:03:49;;;;;;;17.70;10.60;;;102.40;2227.20;;;;;;5070244;28;20036;-72
2022/02/03 08:06:22;;;;;;;21.15;13.27;;;102.50;2227.20;;;;;;5070421;28;20039;-73
2022/02/03 08:08:52;;;;;;;25.00;12.75;;;102.60;2227.20;;;;;;5071913;28;20029;-73
2022/02/03 08:11:30;;;;;;;28.02;13.43;;;102.80;2227.20;;;;;;5072423;28;20028;-73
2022/02/03 08:14:05;;;;;;;25.73;12.27;;;103.10;2227.20;;;;;;5071665;28;20020;-74
2022/02/03 08:16:37;;;;;;;26.63;14.82;;;103.30;2227.20;;;;;;5066116;28;20400;-74
2022/02/03 08:19:19;;;;;;;16.13;8.45;;;103.30;2227.20;;;;;;5066094;28;20116;-75
2022/02/03 08:21:56;;;;;;;13.68;8.27;;;128.10;2252.80;;;;;;5067852;28;20032;-74
2022/02/03 08:24:25;;;;;;;17.65;8.55;;;128.10;2252.80;;;;;;5070452;28;20037;-74
2022/02/03 08:27:24;;;;;;;13.00;8.05;;;128.20;2252.80;;;;;;5071009;28;20033;-75
2022/02/03 08:32:25;;;;;;;14.82;7.50;;;128.20;2252.80;;;;;;5054414;28;20033;-74
2022/02/03 08:37:21;;;;;;;18.73;7.05;;;128.20;2252.80;;;;;;5063022;28;20036;-74
2022/02/03 08:39:55;;;;;;;21.98;6.95;;;128.30;2252.80;;;;;;5065084;28;20028;-73
2022/02/03 08:42:22;;;;;;;11.95;7.13;;;128.40;2252.80;;;;;;5070195;28;20021;-73
2022/02/03 08:44:49;;;;;;;14.90;7.47;;;128.60;2252.80;;;;;;5063808;28;20078;-73
2022/02/03 08:47:15;;;;;;;15.90;7.40;;;128.60;2252.80;;;;;;5063170;28;20025;-74
2022/02/03 08:49:45;;;;;;;18.40;8.63;;;128.60;2252.80;;;;;;5065126;28;20082;-74
2022/02/03 08:52:21;;;;;;;19.02;8.95;;;128.50;2252.80;;;;;;5077965;28;20400;-74
2022/02/03 08:55:04;;;;;;;19.95;9.32;;;128.50;2252.80;;;;;;5062073;28;20112;-74
2022/02/03 08:57:40;;;;;;;13.10;7.40;;;128.60;2252.80;;;;;;5052329;28;20376;-74
2022/02/03 09:41:03;;;;;;;20.48;7.00;;;205.60;2252.80;;;;;;5075144;28;20054;-73
2022/02/03 10:00:01;;;;;;;15.85;6.63;;;231.30;2252.80;;;;;;5064900;28;20047;-73
2022/02/03 10:02:27;;;;;;;17.23;4.85;;;256.10;2252.80;;;;;;5068174;28;20040;-73
2022/02/03 10:04:56;;;;;;;8.20;4.43;;;256.10;2227.20;;;;;;5067362;28;20036;-72
2022/02/03 10:07:30;;;;;;;16.63;7.10;;;231.30;2252.80;;;;;;5066833;28;20387;-73
2022/02/03 10:09:58;;;;;;;24.63;6.45;;;256.10;2252.80;;;;;;5068510;28;20104;-73
2022/02/03 10:12:35;;;;;;;12.10;6.22;;;256.20;2252.80;;;;;;5065384;28;20108;-73
2022/02/03 10:15:02;;;;;;;13.77;6.00;;;256.20;2201.60;;;;;;5066904;28;20023;-73
2022/02/03 10:17:44;;;;;;;10.85;5.80;;;256.40;2099.20;;;;;;5071360;28;20027;-73
2022/02/03 10:20:13;;;;;;;10.60;6.68;;;256.10;2099.20;;;;;;5068502;28;20029;-73
2022/02/03 10:22:46;;;;;;;14.60;3.85;;;256.10;2099.20;;;;;;5063684;28;20150;-72
2022/02/03 10:25:14;;;;;;;14.80;5.43;;;256.10;2048.00;;;;;;5081949;28;20503;-72
2022/02/03 10:27:47;;;;;;;16.67;6.32;;;231.30;2099.20;;;;;;5072457;28;20040;-72
2022/02/03 10:30:26;;;;;;;16.50;6.20;;;256.20;2022.40;;;;;;5073741;28;20059;-73
2022/02/03 10:32:53;;;;;;;7.35;4.50;;;230.90;2201.60;;;;;;5069483;28;20020;-73
2022/02/03 10:35:42;;;;;;;9.05;4.32;;;230.80;2252.80;;;;;;5069352;28;20024;-72
2022/02/03 10:41:34;;;;;;;9.02;4.90;;;256.50;2022.40;;;;;;5073520;28;20063;-73
2022/02/03 10:58:22;;;;;;;15.77;5.55;;;282.20;1868.80;;;;;;5043780;28;20115;-72
2022/02/03 11:01:12;;;;;;;15.90;6.05;;;256.50;1996.80;;;;;;5050477;28;20035;-72
2022/02/03 11:06:57;;;;;;;8.52;4.65;;;231.20;2252.80;;;;;;5050636;28;20408;-72
2022/02/03 11:11:44;;;;;;;8.90;5.82;;;230.90;2252.80;;;;;;5044799;28;20051;-72
2022/02/03 11:14:11;;;;;;;8.60;4.40;;;256.70;2048.00;;;;;;5032572;28;20017;-72
2022/02/03 11:16:39;;;;;;;14.77;5.50;;;256.10;2099.20;;;;;;5031233;28;20045;-73
2022/02/03 11:19:08;;;;;;;13.40;5.32;;;231.20;2252.80;;;;;;5030920;28;20033;-72
2022/02/03 11:21:35;;;;;;;8.07;5.07;;;231.20;2252.80;;;;;;5048436;28;20112;-72
2022/02/03 11:24:12;;;;;;;10.55;5.57;;;230.90;2201.60;;;;;;5044786;28;20121;-72
2022/02/03 12:17:56;;;;;;;12.60;6.72;;;282.20;1766.40;;;;;;5069867;28;20025;-72
2022/02/03 12:20:59;;;;;;;8.57;4.45;;;256.50;1868.80;;;;;;5068268;28;20036;-72
2022/02/03 12:26:29;;;;;;;10.38;4.70;;;282.50;1766.40;;;;;;5071285;28;20044;-72
2022/02/03 12:29:07;;;;;;;12.15;4.55;;;282.50;1740.80;;;;;;5071422;28;20107;-72
2022/02/03 12:40:12;;;;;;;6.50;3.80;;;332.80;1561.60;;;;;;5030568;28;20029;-72
2022/02/03 12:42:49;;;;;;;9.77;4.82;;;333.00;1536.00;;;;;;5024170;28;20037;-72
2022/02/03 12:47:53;;;;;;;;;;;333.50;1510.40;;;;;;5027415;28;20392;-72
2022/02/03 12:50:23;;;;;;;8.98;5.28;;;333.70;1536.00;;;;;;5025668;28;19963;-72
2022/02/03 12:52:49;;;;;;;7.28;4.00;;;333.30;1536.00;;;;;;5026640;28;20033;-72
2022/02/03 12:55:25;;;;;;;11.40;4.40;;;282.50;1536.00;;;;;;5031257;28;20041;-72
2022/02/03 12:57:51;;;;;;;10.20;6.10;;;281.80;1587.20;;;;;;5031138;28;20057;-74
2022/02/03 13:00:26;;;;;;;13.55;5.40;;;282.30;1612.80;;;;;;5030527;28;20037;-72
2022/02/03 13:02:58;;;;;;;7.07;4.28;;;256.90;1612.80;;;;;;5030988;28;20045;-73
2022/02/03 13:05:27;;;;;;;9.30;4.35;;;282.40;1587.20;;;;;;5032439;28;20473;-73
2022/02/03 13:07:55;;;;;;;9.40;5.20;;;307.20;1612.80;;;;;;5027974;28;20060;-72
2022/02/03 13:10:27;;;;;;;15.52;6.13;;;307.60;1561.60;;;;;;5029136;28;20028;-72
2022/02/03 13:13:03;;;;;;;11.48;6.15;;;308.00;1536.00;;;;;;5030882;28;20025;-72
2022/02/03 13:15:40;;;;;;;6.47;3.70;;;332.90;1536.00;;;;;;5055419;28;20812;-73
2022/02/03 13:18:12;;;;;;;10.63;4.25;;;307.90;1510.40;;;;;;5073474;28;20062;-72
2022/02/03 13:20:48;;;;;;;8.27;4.75;;;307.80;1484.80;;;;;;5075097;28;20024;-72
2022/02/03 13:23:17;;;;;;;8.75;4.32;;;307.70;1638.40;;;;;;5073948;28;20021;-72
2022/02/03 13:25:59;;;;;;;8.98;4.28;;;282.30;1587.20;;;;;;5063119;28;20048;-73
2022/02/03 13:31:03;;;;;;;11.55;4.78;;;282.30;1664.00;;;;;;5075186;28;20037;-73
2022/02/03 13:33:40;;;;;;;12.32;5.68;;;282.40;1689.60;;;;;;5074540;28;20513;-72
2022/02/03 13:36:19;;;;;;;9.75;4.85;;;256.80;1792.00;;;;;;5071196;28;20029;-72
2022/02/03 13:39:14;;;;;;;9.00;4.90;;;256.80;1817.60;;;;;;5072199;28;20035;-74
2022/02/03 13:41:43;;;;;;;14.85;4.97;;;281.80;1740.80;;;;;;5074492;28;20020;-73
2022/02/03 13:44:14;;;;;;;10.98;4.75;;;282.10;1715.20;;;;;;5071406;28;20036;-72
2022/02/03 13:46:44;;;;;;;14.23;7.03;;;282.10;1740.80;;;;;;5069219;28;20020;-73
2022/02/03 13:49:22;;;;;;;9.52;4.80;;;282.40;1689.60;;;;;;5066806;28;20024;-72
2022/02/03 13:52:02;;;;;;;7.90;4.32;;;307.20;1715.20;;;;;;5070749;28;20104;-73
2022/02/03 14:21:44;;;;;;;15.65;7.25;;;231.10;2252.80;;;;;;5031334;28;20037;-73
2022/02/03 14:27:34;;;;;;;12.32;7.68;;;231.30;2252.80;;;;;;5031286;28;20034;-74
2022/02/03 14:29:47;;;;;;;21.10;10.77;;;231.20;2227.20;;;;;;5026991;28;20084;-74
2022/02/03 14:32:15;;;;;;;22.17;9.48;;;231.00;2252.80;;;;;;5025563;28;20088;-74
2022/02/03 14:34:41;;;;;;;14.00;7.80;;;230.70;2252.80;;;;;;5025956;28;20101;-74
2022/02/03 14:37:25;;;;;;;16.15;9.15;;;230.40;2252.80;;;;;;5030448;28;20180;-73
2022/02/03 14:40:19;;;;;;;43.38;15.15;;;230.40;2252.80;;;;;;5030098;28;20033;-73
2022/02/03 14:42:46;;;;;;;19.33;10.93;;;230.70;2252.80;;;;;;5031421;28;20459;-73
2022/02/03 14:45:15;;;;;;;19.75;12.05;;;230.90;2252.80;;;;;;5031681;28;20435;-73
2022/02/03 14:47:41;;;;;;;16.13;10.63;;;230.90;2252.80;;;;;;5028782;28;20026;-73
2022/02/03 14:50:08;;;;;;;27.92;13.32;;;230.70;2252.80;;;;;;5031479;28;20033;-73
2022/02/03 14:52:54;;;;;;;20.90;9.45;;;230.60;2252.80;;;;;;5028792;28;20032;-73
2022/02/03 14:58:11;;;;;;;18.95;7.93;;;230.60;2252.80;;;;;;5072263;28;20120;-73
2022/02/03 15:00:36;;;;;;;14.30;7.63;;;230.50;2252.80;;;;;;5071190;28;20016;-72
2022/02/03 15:03:02;;;;;;;14.70;7.13;;;230.60;2252.80;;;;;;5073105;28;20112;-75
2022/02/03 15:05:34;;;;;;;11.65;5.78;;;230.70;2252.80;;;;;;5070480;28;20264;-72
2022/02/03 15:08:06;;;;;;;18.63;7.55;;;230.60;2252.80;;;;;;5070727;28;20024;-73
2022/02/03 15:15:29;;;;;;;7.80;5.13;;;205.70;2252.80;;;;;;5073566;28;20024;-73
2022/02/03 15:17:55;;;;;;;11.35;6.78;;;205.40;2252.80;;;;;;5071138;28;20024;-73
2022/02/03 15:20:21;;;;;;;14.63;8.15;;;205.30;2252.80;;;;;;5071773;28;20403;-73
2022/02/03 15:22:46;;;;;;;24.65;10.38;;;205.10;2252.80;;;;;;5071584;28;20024;-72
2022/02/03 15:25:12;;;;;;;18.48;9.13;;;205.00;2252.80;;;;;;5072801;28;20048;-73
2022/02/03 15:27:38;;;;;;;23.55;13.20;;;204.90;2252.80;;;;;;5070909;28;20048;-73
2022/02/03 15:30:05;;;;;;;30.70;18.40;;;204.80;2252.80;;;;;;5072725;28;20025;-73
2022/02/03 15:32:37;;;;;;;31.15;17.88;;;180.10;2252.80;;;;;;5071758;28;20021;-72
2022/02/03 15:35:08;;;;;;;37.08;23.17;;;180.00;2252.80;;;;;;5070254;28;20020;-73
2022/02/03 15:37:34;;;;;;;45.15;23.88;;;179.90;2252.80;;;;;;5070180;28;20387;-72
2022/02/03 15:40:05;;;;;;;28.70;17.27;;;179.70;2252.80;;;;;;5069799;28;20020;-73
2022/02/03 15:42:37;;;;;;;34.55;20.30;;;179.60;2252.80;;;;;;5070181;28;20512;-73
2022/02/03 15:45:05;;;;;;;27.60;17.00;;;179.40;2252.80;;;;;;5069545;28;20483;-73
2022/02/03 15:47:38;;;;;;;33.53;18.70;;;179.30;2252.80;;;;;;5070081;28;20031;-73
2022/02/03 16:19:17;;;;;;;74.82;41.15;;;128.90;2252.80;;;;;;5073133;28;20117;-72
2022/02/03 16:22:08;;;;;;;91.03;42.95;;;128.70;2252.80;;;;;;5077588;28;20378;-73
2022/02/03 16:51:22;;;;;;;216.27;102.90;;;128.20;2252.80;;;;;;5070519;28;20391;-73
2022/02/03 16:53:48;;;;;;;197.98;102.43;;;128.20;2252.80;;;;;;5080472;28;20024;-73
2022/02/03 16:56:14;;;;;;;206.30;99.93;;;128.10;2252.80;;;;;;5068616;28;20094;-72
2022/02/03 16:58:42;;;;;;;182.88;92.40;;;128.00;2252.80;;;;;;5076964;28;20032;-72
2022/02/03 17:01:08;;;;;;;212.20;103.22;;;103.30;2227.20;;;;;;5076395;28;20024;-72
2022/02/03 17:03:34;;;;;;;204.15;108.38;;;103.30;2227.20;;;;;;5074176;28;20037;-75
2022/02/03 17:06:00;;;;;;;202.30;101.30;;;103.20;2227.20;;;;;;5069400;28;20039;-73
2022/02/03 17:08:26;;;;;;;206.88;103.90;;;103.20;2227.20;;;;;;5070291;28;20116;-72
2022/02/03 17:10:52;;;;;;;190.10;98.57;;;103.20;2227.20;;;;;;5069901;28;20017;-73
2022/02/03 17:13:17;;;;;;;205.02;100.53;;;103.20;2227.20;;;;;;5069712;28;20021;-72
2022/02/03 17:15:43;;;;;;;189.10;97.53;;;103.10;2227.20;;;;;;5070546;28;20429;-70
2022/02/03 17:18:10;;;;;;;190.20;99.65;;;103.10;2227.20;;;;;;5072211;28;20048;-72
2022/02/03 17:20:38;;;;;;;203.50;116.40;;;103.10;2227.20;;;;;;5073293;28;20024;-72
2022/02/03 17:23:07;;;;;;;197.65;113.25;;;103.00;2227.20;;;;;;5070520;28;20029;-72
2022/02/03 17:26:44;;;;;;;216.35;129.27;;;103.00;2227.20;;;;;;5070021;28;20510;-71
2022/02/03 17:32:20;;;;;;;237.75;140.20;;;102.80;2227.20;;;;;;5067978;28;20387;-71
2022/02/03 18:17:37;;;;;;;83.95;44.38;;;77.70;2227.20;;;;;;4990519;28;20077;-74
2022/02/03 18:34:06;;;;;;;74.53;42.72;;;77.70;2227.20;;;;;;4989328;28;20401;-72
2022/02/03 18:49:03;;;;;;;182.93;89.68;;;77.70;2227.20;;;;;;4989794;28;20038;-72
2022/02/03 18:55:16;;;;;;;206.25;108.95;;;77.70;2227.20;;;;;;5071518;28;20070;-73
2022/02/03 18:58:04;;;;;;;217.93;121.60;;;77.60;2227.20;;;;;;5071447;28;20115;-72
2022/02/03 19:23:03;;;;;;;134.98;75.43;;;77.50;2227.20;;;;;;5048705;28;20514;-73
2022/02/03 20:04:59;;;;;;;158.55;85.93;;;77.30;2227.20;;;;;;5070331;28;20118;-74
2022/02/03 20:12:22;;;;;;;114.05;67.78;;;77.30;2227.20;;;;;;5074592;28;20017;-74
2022/02/03 20:14:49;;;;;;;95.22;56.15;;;77.20;2227.20;;;;;;5072193;28;20073;-75
2022/02/03 20:17:19;;;;;;;72.35;44.60;;;77.30;2227.20;;;;;;5075172;28;20033;-74
2022/02/03 20:19:46;;;;;;;92.40;55.72;;;77.30;2227.20;;;;;;5066092;28;20035;-74
2022/02/03 20:22:12;;;;;;;124.18;72.82;;;77.40;2227.20;;;;;;5069689;28;20506;-74
2022/02/03 20:24:38;;;;;;;100.13;55.92;;;77.40;2227.20;;;;;;5069879;28;20048;-74
2022/02/03 20:27:03;;;;;;;84.80;49.72;;;77.40;2227.20;;;;;;5071732;28;20029;-75
2022/02/03 20:29:29;;;;;;;75.82;42.40;;;77.50;2227.20;;;;;;5072759;28;20034;-74
2022/02/03 20:31:55;;;;;;;63.92;36.70;;;77.50;2227.20;;;;;;5067994;28;20036;-73
2022/02/03 20:34:22;;;;;;;54.47;33.35;;;77.50;2227.20;;;;;;5071025;28;20052;-73
2022/02/03 20:36:48;;;;;;;89.15;49.88;;;77.50;2227.20;;;;;;5074754;28;20543;-74
2022/02/03 20:39:14;;;;;;;54.47;35.15;;;77.50;2227.20;;;;;;5073339;28;20029;-74
2022/02/03 20:41:40;;;;;;;59.85;30.23;;;77.50;2227.20;;;;;;5074626;28;20031;-74
2022/02/03 20:44:06;;;;;;;53.75;32.45;;;77.50;2227.20;;;;;;5071770;28;20035;-74
2022/02/03 20:46:32;;;;;;;52.28;32.90;;;77.50;2227.20;;;;;;5070604;28;20024;-73
2022/02/03 20:48:58;;;;;;;48.50;32.47;;;77.50;2227.20;;;;;;5074265;28;20024;-74
2022/02/03 20:51:24;;;;;;;50.58;31.00;;;77.50;2227.20;;;;;;5072012;28;20012;-73
2022/02/03 20:53:50;;;;;;;50.78;31.75;;;77.50;2227.20;;;;;;5070984;28;20085;-73
2022/02/03 20:56:17;;;;;;;44.72;29.33;;;77.50;2227.20;;;;;;5070481;28;20039;-72
2022/02/03 20:58:44;;;;;;;87.57;46.45;;;77.40;2227.20;;;;;;5074523;28;20029;-72
2022/02/03 21:01:32;;;;;;;60.80;37.45;;;77.40;2227.20;;;;;;5072181;28;20079;-72
2022/02/03 21:04:29;;;;;;;43.72;27.30;;;77.50;2227.20;;;;;;5074031;28;20024;-72
2022/02/03 21:06:47;;;;;;;43.47;28.77;;;77.50;2227.20;;;;;;5071551;28;20081;-72
2022/02/03 21:09:12;;;;;;;41.75;28.33;;;77.40;2227.20;;;;;;5072329;28;20017;-74
2022/02/03 21:11:38;;;;;;;44.20;25.38;;;77.30;2227.20;;;;;;5069887;28;20443;-72
2022/02/03 21:14:04;;;;;;;38.97;24.75;;;77.20;2227.20;;;;;;5070595;28;20013;-73
2022/02/03 21:16:30;;;;;;;45.63;23.70;;;77.30;2227.20;;;;;;5073761;28;20441;-74
2022/02/03 21:18:56;;;;;;;38.13;22.00;;;77.30;2227.20;;;;;;5072560;28;20498;-74
2022/02/03 21:21:22;;;;;;;42.55;21.67;;;77.40;2227.20;;;;;;5073495;28;20056;-74
2022/02/03 21:23:47;;;;;;;59.58;31.85;;;77.40;2227.20;;;;;;5073437;28;20451;-74
2022/02/03 21:26:21;;;;;;;94.15;53.75;;;77.50;2227.20;;;;;;5074638;28;20474;-74
2022/02/03 21:28:48;;;;;;;90.97;54.97;;;77.50;2227.20;;;;;;5073493;28;20032;-74
2022/02/03 21:31:15;;;;;;;82.43;46.40;;;77.50;2227.20;;;;;;5074557;28;20035;-74
2022/02/03 21:33:51;;;;;;;78.78;44.50;;;77.50;2227.20;;;;;;5074316;28;20020;-74
2022/02/03 21:36:19;;;;;;;91.80;53.63;;;77.50;2227.20;;;;;;5072975;28;20050;-74
2022/02/03 21:38:45;;;;;;;80.82;44.58;;;77.50;2227.20;;;;;;5073358;28;20066;-74
2022/02/03 21:41:12;;;;;;;73.82;40.67;;;77.40;2227.20;;;;;;5073179;28;20073;-74
2022/02/03 21:43:38;;;;;;;74.65;42.00;;;77.40;2227.20;;;;;;5074309;28;20443;-75
2022/02/03 21:46:04;;;;;;;70.07;40.90;;;77.40;2227.20;;;;;;5068295;28;20111;-75
2022/02/03 21:48:30;;;;;;;71.78;40.53;;;77.40;2227.20;;;;;;5070909;28;20021;-75
2022/02/03 21:50:59;;;;;;;70.20;41.10;;;77.30;2227.20;;;;;;5071978;28;20372;-76
2022/02/03 21:53:29;;;;;;;51.13;31.45;;;77.30;2227.20;;;;;;5073750;28;20025;-75
2022/02/03 21:55:56;;;;;;;47.67;29.15;;;77.30;2227.20;;;;;;5076188;28;20127;-75
2022/02/03 21:58:25;;;;;;;58.30;33.20;;;77.30;2227.20;;;;;;5073479;28;20036;-75
2022/02/03 22:00:52;;;;;;;64.32;37.92;;;77.30;2227.20;;;;;;5073878;28;20107;-75
2022/02/03 22:03:18;;;;;;;45.33;28.98;;;77.30;2227.20;;;;;;5066286;28;20115;-75
2022/02/03 22:05:44;;;;;;;34.25;19.90;;;77.30;2227.20;;;;;;5073903;28;20160;-75
2022/02/03 22:08:12;;;;;;;32.42;20.10;;;77.20;2227.20;;;;;;5071674;28;20067;-75
2022/02/03 22:10:37;;;;;;;29.60;18.33;;;77.10;2227.20;;;;;;5073379;28;20021;-75
2022/02/03 22:13:03;;;;;;;29.60;18.35;;;77.10;2227.20;;;;;;5068315;28;20603;-74
2022/02/03 22:15:30;;;;;;;30.75;18.80;;;77.10;2227.20;;;;;;5072912;28;20557;-75
2022/02/03 22:17:55;;;;;;;31.52;19.20;;;77.10;2227.20;;;;;;5073576;28;20056;-74
2022/02/03 22:20:29;;;;;;;38.45;20.08;;;77.10;2227.20;;;;;;5073606;28;20059;-74
2022/02/03 22:26:14;;;;;;;34.92;21.67;;;77.10;2227.20;;;;;;5071840;28;20094;-74
2022/02/03 22:49:37;;;;;;;43.90;26.42;;;77.10;2227.20;;;;;;5073226;28;20027;-72
2022/02/03 22:52:05;;;;;;;43.30;25.50;;;77.10;2227.20;;;;;;5072587;28;20020;-73
2022/02/03 22:54:31;;;;;;;44.00;25.27;;;77.10;2227.20;;;;;;5073838;28;20032;-72
2022/02/03 22:56:57;;;;;;;42.72;25.55;;;77.10;2227.20;;;;;;5072297;28;20040;-73
2022/02/03 23:02:07;;;;;;;79.28;46.80;;;77.10;2227.20;;;;;;5073246;28;20158;-72
2022/02/03 23:04:33;;;;;;;67.53;35.00;;;77.10;2227.20;;;;;;5072273;28;20493;-72
2022/02/03 23:07:37;;;;;;;50.78;28.42;;;77.10;2227.20;;;;;;5073737;28;20024;-72
2022/02/03 23:12:30;;;;;;;50.78;29.05;;;77.00;2227.20;;;;;;5073695;28;20391;-72
2022/02/03 23:15:26;;;;;;;48.28;27.88;;;77.00;2227.20;;;;;;5072591;28;20483;-72
2022/02/03 23:17:53;;;;;;;48.80;27.42;;;77.00;2227.20;;;;;;5073642;28;20029;-72
2022/02/03 23:20:23;;;;;;;42.72;26.58;;;77.00;2227.20;;;;;;5073425;28;20025;-72
2022/02/03 23:22:50;;;;;;;50.40;27.45;;;77.00;2227.20;;;;;;5072315;28;20060;-72
2022/02/03 23:25:19;;;;;;;45.47;27.65;;;77.00;2227.20;;;;;;5071671;28;20128;-72
2022/02/03 23:30:23;;;;;;;44.63;26.25;;;77.10;2227.20;;;;;;5073060;28;20024;-73
2022/02/03 23:32:51;;;;;;;42.97;27.45;;;77.10;2227.20;;;;;;5070870;28;20485;-73
2022/02/03 23:35:20;;;;;;;46.20;28.48;;;77.10;2227.20;;;;;;5073410;28;20027;-72
2022/02/03 23:37:53;;;;;;;57.30;31.77;;;77.00;2227.20;;;;;;5072986;28;20028;-73
2022/02/03 23:51:47;;;;;;;59.80;34.85;;;76.90;2227.20;;;;;;5066814;28;20027;-73
